aviador You're here:

KORH Decoded Metar

WORCESTER in MA, USA
Report Time2017-07-21 05:54:00
UTC Time2017-07-21 06:51:27
Flight Rules vfr VFR
Wind270° at 06 kt
W.Decomp.*RWY 29: 6.0 kt HW 0.5 kt LCW
RWY 33: 4.2 kt HW 4.2 kt LCW
W.Rank270° ranks 1
Current wind is below 270° avg. (9.8)
Visibility9999 m
Phenomena:N/A
Clouds:N/A
Expected CloudBase > 2,400 ft AGL from Temp-Dew spread
CeilingNone
Temp21°C (ISA +8)
Dew Point15°C (69% RH)
AAT20.5°C
QNH1012 hPa
Density Alt2,192 ft
Elevation997 ft
Report Wrong Elevation
Raw Report
KORH 210554Z AUTO 27006KT 10SM CLR 21/15 A2988 RMK AO2 SLP110
T02060150 10261 20206 58006=

Extra information for KORH:More info

Metar Taf Metar & Taf Last 4 Metars F.Rules Stats Wind Profile Meteogram Temp Stats Airport Information Weather charts Add Link Nearby VenuesMetar ALERT Operation Metar Decoded Social comments

AIRNAV info for KORH